Time,TemperatureF,DewpointF,PressureIn,WindDirection,WindDirectionDegrees,WindSpeedMPH,WindSpeedGustMPH,Humidity,HourlyPrecipIn,Conditions,Clouds,dailyrainin,SolarRadiationWatts/m^2,SoftwareType,DateUTC
2013-03-26 00:00:00,47.2,44.3,29.68,SW,236,5.6,10.7,89,0.00,,,-99.99,1.0,HOBO +U30 +Weather +,2013-03-26 07:00:00,
2013-03-26 00:05:00,47.2,44.4,29.68,SW,223,6.3,13.4,90,0.00,,,-99.99,1.0,HOBO +U30 +Weather +,2013-03-26 07:05:00,
2013-03-26 00:10:00,47.2,44.5,29.68,SW,233,6.7,11.9,90,0.00,,,-99.99,1.0,HOBO +U30 +Weather +,2013-03-26 07:10:00,
2013-03-26 00:15:00,47.1,44.4,29.68,SW,233,6.7,13.4,90,0.00,,,-99.99,1.0,HOBO +U30 +Weather +,2013-03-26 07:15:00,
2013-03-26 00:20:00,47.2,44.4,29.67,WSW,248,5.1,13.0,90,0.00,,,-99.99,1.0,HOBO +U30 +Weather +,2013-03-26 07:20:00,
2013-03-26 00:25:00,47.2,44.5,29.68,WSW,239,5.6,15.2,90,0.00,,,-99.99,1.0,HOBO +U30 +Weather +,2013-03-26 07:25:00,
2013-03-26 00:30:00,47.3,44.5,29.68,WSW,240,5.1,11.9,90,0.00,,,-99.99,1.0,HOBO +U30 +Weather +,2013-03-26 07:30:00,
2013-03-26 00:35:00,47.3,44.6,29.68,WSW,241,4.5,10.7,90,0.00,,,-99.99,1.0,HOBO +U30 +Weather +,2013-03-26 07:35:00,
2013-03-26 00:40:00,47.4,44.8,29.67,SW,232,5.6,12.3,90,0.00,,,-99.99,1.0,HOBO +U30 +Weather +,2013-03-26 07:40:00,
2013-03-26 00:45:00,47.4,44.9,29.67,SW,234,5.6,10.7,90,0.00,,,-99.99,1.0,HOBO +U30 +Weather +,2013-03-26 07:45:00,
2013-03-26 00:50:00,47.5,44.9,29.67,SW,234,6.7,14.5,90,0.00,,,-99.99,1.0,HOBO +U30 +Weather +,2013-03-26 07:50:00,
2013-03-26 00:55:00,47.5,45.0,29.67,SW,236,7.4,14.5,90,0.00,,,-99.99,1.0,HOBO +U30 +Weather +,2013-03-26 07:55:00,
2013-03-26 01:00:00,47.5,45.1,29.68,SW,233,6.7,12.3,91,0.00,,,-99.99,1.0,HOBO +U30 +Weather +,2013-03-26 08:00:00,
2013-03-26 01:05:00,47.5,45.1,29.68,SW,230,5.1,10.1,91,0.00,,,-99.99,1.0,HOBO +U30 +Weather +,2013-03-26 08:05:00,
2013-03-26 01:10:00,47.5,45.1,29.68,SW,236,4.5,10.1,91,0.00,,,-99.99,1.0,HOBO +U30 +Weather +,2013-03-26 08:10:00,
2013-03-26 01:15:00,47.5,45.1,29.67,WSW,244,5.1,14.5,91,0.00,,,-99.99,1.0,HOBO +U30 +Weather +,2013-03-26 08:15:00,
2013-03-26 01:20:00,47.5,45.2,29.67,SW,234,4.5,11.2,91,0.00,,,-99.99,1.0,HOBO +U30 +Weather +,2013-03-26 08:20:00,
2013-03-26 01:25:00,47.5,45.1,29.67,WSW,257,2.2,7.4,91,0.00,,,-99.99,1.0,HOBO +U30 +Weather +,2013-03-26 08:25:00,
2013-03-26 01:30:00,47.6,45.2,29.67,WSW,246,4.5,11.2,91,0.00,,,-99.99,1.0,HOBO +U30 +Weather +,2013-03-26 08:30:00,
2013-03-26 01:35:00,47.5,45.0,29.67,WSW,239,3.4,8.9,91,0.00,,,-99.99,1.0,HOBO +U30 +Weather +,2013-03-26 08:35:00,
2013-03-26 01:40:00,47.4,45.0,29.67,WSW,244,4.5,13.0,91,0.00,,,-99.99,1.0,HOBO +U30 +Weather +,2013-03-26 08:40:00,
2013-03-26 01:45:00,47.4,45.0,29.67,SW,234,4.0,11.9,91,0.00,,,-99.99,1.0,HOBO +U30 +Weather +,2013-03-26 08:45:00,
2013-03-26 01:50:00,47.5,45.1,29.67,WSW,239,3.4,8.9,91,0.00,,,-99.99,1.0,HOBO +U30 +Weather +,2013-03-26 08:50:00,
2013-03-26 01:55:00,47.5,45.1,29.67,WSW,244,5.6,12.3,91,0.00,,,-99.99,1.0,HOBO +U30 +Weather +,2013-03-26 08:55:00,
2013-03-26 02:00:00,47.5,45.1,29.67,SW,234,4.5,11.9,91,0.00,,,-99.99,1.0,HOBO +U30 +Weather +,2013-03-26 09:00:00,
2013-03-26 02:05:00,47.5,45.1,29.67,WSW,244,1.8,13.0,91,0.00,,,-99.99,1.0,HOBO +U30 +Weather +,2013-03-26 09:05:00,
2013-03-26 02:10:00,47.4,44.9,29.67,WSW,246,5.1,11.9,90,0.00,,,-99.99,1.0,HOBO +U30 +Weather +,2013-03-26 09:10:00,
2013-03-26 02:15:00,47.5,44.9,29.67,NW,317,2.2,11.2,90,0.00,,,-99.99,1.0,HOBO +U30 +Weather +,2013-03-26 09:15:00,
2013-03-26 02:20:00,47.4,44.8,29.67,WNW,282,1.1,6.7,90,0.00,,,-99.99,1.0,HOBO +U30 +Weather +,2013-03-26 09:20:00,
2013-03-26 02:25:00,47.4,44.8,29.67,WNW,293,2.9,9.6,90,0.00,,,-99.99,1.0,HOBO +U30 +Weather +,2013-03-26 09:25:00,
2013-03-26 02:30:00,47.3,44.9,29.67,WSW,254,2.9,8.5,91,0.00,,,-99.99,1.0,HOBO +U30 +Weather +,2013-03-26 09:30:00,
2013-03-26 02:35:00,47.4,45.0,29.67,SW,230,5.1,10.1,91,0.00,,,-99.99,1.0,HOBO +U30 +Weather +,2013-03-26 09:35:00,
2013-03-26 02:40:00,47.3,44.9,29.66,SW,234,7.4,13.4,91,0.00,,,-99.99,1.0,HOBO +U30 +Weather +,2013-03-26 09:40:00,
2013-03-26 02:45:00,47.3,44.9,29.66,SW,233,7.4,13.4,91,0.00,,,-99.99,1.0,HOBO +U30 +Weather +,2013-03-26 09:45:00,
2013-03-26 02:50:00,47.3,44.9,29.66,WSW,237,8.9,17.0,91,0.00,,,-99.99,1.0,HOBO +U30 +Weather +,2013-03-26 09:50:00,
2013-03-26 02:55:00,47.3,44.9,29.66,SW,232,6.7,13.4,91,0.00,,,-99.99,1.0,HOBO +U30 +Weather +,2013-03-26 09:55:00,
2013-03-26 03:00:00,47.3,45.0,29.66,WSW,237,5.6,13.4,91,0.00,,,-99.99,1.0,HOBO +U30 +Weather +,2013-03-26 10:00:00,
2013-03-26 03:05:00,47.3,45.0,29.66,WSW,240,6.3,11.9,91,0.00,,,-99.99,1.0,HOBO +U30 +Weather +,2013-03-26 10:05:00,
2013-03-26 03:10:00,47.2,44.9,29.66,WSW,244,4.5,11.9,91,0.00,,,-99.99,1.0,HOBO +U30 +Weather +,2013-03-26 10:10:00,
2013-03-26 03:15:00,47.2,44.9,29.66,WSW,257,5.6,13.0,91,0.00,,,-99.99,1.0,HOBO +U30 +Weather +,2013-03-26 10:15:00,
2013-03-26 03:20:00,47.2,44.9,29.65,WSW,256,3.4,10.1,91,0.00,,,-99.99,1.0,HOBO +U30 +Weather +,2013-03-26 10:20:00,
2013-03-26 03:25:00,47.2,44.8,29.65,West,260,3.4,8.5,91,0.00,,,-99.99,1.0,HOBO +U30 +Weather +,2013-03-26 10:25:00,
2013-03-26 03:30:00,47.1,44.8,29.65,WSW,251,4.0,11.2,91,0.00,,,-99.99,1.0,HOBO +U30 +Weather +,2013-03-26 10:30:00,
2013-03-26 03:35:00,47.1,44.8,29.66,WSW,253,4.0,8.9,91,0.00,,,-99.99,1.0,HOBO +U30 +Weather +,2013-03-26 10:35:00,
2013-03-26 03:40:00,47.1,44.8,29.65,WSW,240,2.9,8.5,91,0.00,,,-99.99,1.0,HOBO +U30 +Weather +,2013-03-26 10:40:00,
2013-03-26 03:45:00,47.1,44.9,29.65,WSW,240,3.4,9.6,91,0.00,,,-99.99,1.0,HOBO +U30 +Weather +,2013-03-26 10:45:00,
2013-03-26 03:50:00,47.1,44.9,29.65,WSW,239,4.0,12.3,92,0.00,,,-99.99,1.0,HOBO +U30 +Weather +,2013-03-26 10:50:00,
2013-03-26 03:55:00,47.0,44.7,29.65,WSW,254,4.0,8.5,91,0.00,,,-99.99,1.0,HOBO +U30 +Weather +,2013-03-26 10:55:00,
2013-03-26 04:00:00,46.9,44.7,29.65,WSW,254,2.2,7.8,91,0.00,,,-99.99,1.0,HOBO +U30 +Weather +,2013-03-26 11:00:00,
2013-03-26 04:05:00,46.9,44.7,29.65,WSW,251,2.2,6.3,91,0.00,,,-99.99,1.0,HOBO +U30 +Weather +,2013-03-26 11:05:00,
2013-03-26 04:10:00,46.9,44.7,29.65,WSW,239,1.8,10.1,91,0.00,,,-99.99,1.0,HOBO +U30 +Weather +,2013-03-26 11:10:00,
2013-03-26 04:15:00,46.8,44.6,29.65,WSW,247,4.5,8.9,91,0.00,,,-99.99,1.0,HOBO +U30 +Weather +,2013-03-26 11:15:00,
2013-03-26 04:20:00,46.9,44.7,29.65,WSW,253,4.0,10.1,91,0.00,,,-99.99,1.0,HOBO +U30 +Weather +,2013-03-26 11:20:00,
2013-03-26 04:25:00,47.0,44.9,29.65,SW,232,5.1,11.2,92,0.00,,,-99.99,1.0,HOBO +U30 +Weather +,2013-03-26 11:25:00,
2013-03-26 04:30:00,47.0,44.8,29.65,WSW,237,5.6,15.9,91,0.00,,,-99.99,1.0,HOBO +U30 +Weather +,2013-03-26 11:30:00,
2013-03-26 04:35:00,47.0,44.7,29.65,SW,234,6.7,11.9,91,0.00,,,-99.99,1.0,HOBO +U30 +Weather +,2013-03-26 11:35:00,
2013-03-26 04:40:00,47.0,44.7,29.65,SW,230,6.3,11.9,91,0.00,,,-99.99,1.0,HOBO +U30 +Weather +,2013-03-26 11:40:00,
2013-03-26 04:45:00,46.9,44.8,29.66,SW,232,4.5,10.7,92,0.00,,,-99.99,1.0,HOBO +U30 +Weather +,2013-03-26 11:45:00,
2013-03-26 04:50:00,46.9,45.0,29.65,SW,229,5.6,10.1,93,0.00,,,-99.99,1.0,HOBO +U30 +Weather +,2013-03-26 11:50:00,
2013-03-26 04:55:00,46.8,45.0,29.65,WSW,257,1.8,7.4,93,0.00,,,-99.99,1.0,HOBO +U30 +Weather +,2013-03-26 11:55:00,
2013-03-26 05:00:00,46.8,45.0,29.65,WSW,239,4.0,8.9,93,0.00,,,-99.99,1.0,HOBO +U30 +Weather +,2013-03-26 12:00:00,
2013-03-26 05:05:00,46.9,45.1,29.65,WSW,258,1.8,7.4,93,0.00,,,-99.99,1.0,HOBO +U30 +Weather +,2013-03-26 12:05:00,
2013-03-26 05:10:00,46.9,45.2,29.65,WSW,247,2.2,6.3,93,0.00,,,-99.99,1.0,HOBO +U30 +Weather +,2013-03-26 12:10:00,
2013-03-26 05:15:00,46.9,45.2,29.65,WSW,248,2.9,7.8,93,0.00,,,-99.99,1.0,HOBO +U30 +Weather +,2013-03-26 12:15:00,
2013-03-26 05:20:00,46.9,45.2,29.65,WSW,247,4.0,10.7,93,0.00,,,-99.99,1.0,HOBO +U30 +Weather +,2013-03-26 12:20:00,
2013-03-26 05:25:00,46.9,45.2,29.65,SW,236,4.0,9.6,93,0.00,,,-99.99,1.0,HOBO +U30 +Weather +,2013-03-26 12:25:00,
2013-03-26 05:30:00,46.8,45.1,29.65,WSW,246,5.1,11.9,93,0.00,,,-99.99,1.0,HOBO +U30 +Weather +,2013-03-26 12:30:00,
2013-03-26 05:35:00,46.7,45.0,29.65,WSW,241,4.0,9.6,93,0.00,,,-99.99,1.0,HOBO +U30 +Weather +,2013-03-26 12:35:00,
2013-03-26 05:40:00,46.7,45.1,29.65,SW,233,4.0,9.6,93,0.00,,,-99.99,1.0,HOBO +U30 +Weather +,2013-03-26 12:40:00,
2013-03-26 05:45:00,46.7,45.0,29.66,WSW,244,2.9,8.9,93,0.00,,,-99.99,1.0,HOBO +U30 +Weather +,2013-03-26 12:45:00,
2013-03-26 05:50:00,46.7,45.1,29.66,SW,227,3.4,7.8,94,0.00,,,-99.99,1.0,HOBO +U30 +Weather +,2013-03-26 12:50:00,
2013-03-26 05:55:00,46.7,45.2,29.65,SW,233,5.1,8.9,94,0.00,,,-99.99,1.0,HOBO +U30 +Weather +,2013-03-26 12:55:00,
2013-03-26 06:00:00,46.7,45.3,29.65,WSW,241,4.0,7.8,94,0.00,,,-99.99,1.0,HOBO +U30 +Weather +,2013-03-26 13:00:00,
2013-03-26 06:05:00,46.8,45.3,29.65,WSW,241,4.5,9.6,94,0.00,,,-99.99,1.0,HOBO +U30 +Weather +,2013-03-26 13:05:00,
2013-03-26 06:10:00,46.7,45.2,29.65,WSW,246,4.5,12.3,94,0.00,,,-99.99,1.0,HOBO +U30 +Weather +,2013-03-26 13:10:00,
2013-03-26 06:15:00,46.7,45.2,29.65,WSW,248,4.0,8.5,94,0.00,,,-99.99,1.0,HOBO +U30 +Weather +,2013-03-26 13:15:00,
2013-03-26 06:20:00,46.7,45.1,29.65,West,270,2.2,7.8,94,0.00,,,-99.99,1.0,HOBO +U30 +Weather +,2013-03-26 13:20:00,
2013-03-26 06:25:00,46.6,45.0,29.66,West,271,1.1,5.1,94,0.00,,,-99.99,1.0,HOBO +U30 +Weather +,2013-03-26 13:25:00,
2013-03-26 06:30:00,46.7,45.2,29.66,WNW,296,0.0,4.5,94,0.00,,,-99.99,1.0,HOBO +U30 +Weather +,2013-03-26 13:30:00,
2013-03-26 06:35:00,46.7,45.2,29.66,WNW,296,1.1,7.4,94,0.00,,,-99.99,1.0,HOBO +U30 +Weather +,2013-03-26 13:35:00,
2013-03-26 06:40:00,46.6,45.1,29.66,West,260,1.1,5.1,94,0.00,,,-99.99,1.0,HOBO +U30 +Weather +,2013-03-26 13:40:00,
2013-03-26 06:45:00,46.7,45.2,29.66,WSW,248,3.4,8.9,94,0.00,,,-99.99,1.0,HOBO +U30 +Weather +,2013-03-26 13:45:00,
2013-03-26 06:50:00,46.7,45.2,29.66,SW,236,3.4,8.9,94,0.00,,,-99.99,1.0,HOBO +U30 +Weather +,2013-03-26 13:50:00,
2013-03-26 06:55:00,46.7,45.3,29.66,WSW,240,4.0,7.8,94,0.00,,,-99.99,1.0,HOBO +U30 +Weather +,2013-03-26 13:55:00,
2013-03-26 07:00:00,46.8,45.4,29.66,SW,236,2.9,6.7,94,0.00,,,-99.99,3.0,HOBO +U30 +Weather +,2013-03-26 14:00:00,
2013-03-26 07:05:00,46.8,45.5,29.66,SW,233,4.0,8.5,95,0.00,,,-99.99,3.0,HOBO +U30 +Weather +,2013-03-26 14:05:00,
2013-03-26 07:10:00,46.8,45.4,29.67,WSW,240,4.0,8.9,95,0.00,,,-99.99,6.0,HOBO +U30 +Weather +,2013-03-26 14:10:00,
2013-03-26 07:15:00,46.7,45.4,29.67,WSW,253,1.8,6.7,95,0.00,,,-99.99,11.0,HOBO +U30 +Weather +,2013-03-26 14:15:00,
2013-03-26 07:20:00,46.7,45.5,29.67,WSW,254,2.9,7.8,95,0.00,,,-99.99,16.0,HOBO +U30 +Weather +,2013-03-26 14:20:00,
2013-03-26 07:25:00,46.8,45.6,29.67,SW,219,2.2,8.9,95,0.00,,,-99.99,16.0,HOBO +U30 +Weather +,2013-03-26 14:25:00,
2013-03-26 07:30:00,46.8,45.5,29.67,West,271,1.1,6.7,95,0.00,,,-99.99,39.0,HOBO +U30 +Weather +,2013-03-26 14:30:00,
2013-03-26 07:35:00,47.1,45.7,29.67,WSW,257,2.9,7.4,95,0.00,,,-99.99,46.0,HOBO +U30 +Weather +,2013-03-26 14:35:00,
2013-03-26 07:40:00,47.0,45.6,29.67,WSW,247,2.9,6.3,94,0.00,,,-99.99,98.0,HOBO +U30 +Weather +,2013-03-26 14:40:00,
2013-03-26 07:45:00,47.5,46.0,29.67,WSW,239,2.2,8.5,94,0.00,,,-99.99,133.0,HOBO +U30 +Weather +,2013-03-26 14:45:00,
2013-03-26 07:50:00,47.5,45.8,29.67,WSW,258,2.9,7.4,93,0.00,,,-99.99,118.0,HOBO +U30 +Weather +,2013-03-26 14:50:00,
2013-03-26 07:55:00,47.9,46.2,29.67,West,264,1.8,6.3,93,0.00,,,-99.99,139.0,HOBO +U30 +Weather +,2013-03-26 14:55:00,
2013-03-26 08:00:00,48.5,46.6,29.67,West,263,0.7,4.0,92,0.00,,,-99.99,157.0,HOBO +U30 +Weather +,2013-03-26 15:00:00,
2013-03-26 08:05:00,48.2,46.0,29.67,WNW,284,2.2,5.6,91,0.00,,,-99.99,171.0,HOBO +U30 +Weather +,2013-03-26 15:05:00,
2013-03-26 08:10:00,48.3,46.1,29.67,WSW,243,2.2,7.8,92,0.00,,,-99.99,181.0,HOBO +U30 +Weather +,2013-03-26 15:10:00,
2013-03-26 08:15:00,48.7,46.6,29.67,WSW,241,2.2,7.4,92,0.00,,,-99.99,163.0,HOBO +U30 +Weather +,2013-03-26 15:15:00,
2013-03-26 08:20:00,48.8,46.5,29.67,WSW,251,2.2,7.4,91,0.00,,,-99.99,118.0,HOBO +U30 +Weather +,2013-03-26 15:20:00,
2013-03-26 08:25:00,49.0,46.4,29.67,West,281,1.8,6.3,90,0.00,,,-99.99,244.0,HOBO +U30 +Weather +,2013-03-26 15:25:00,
2013-03-26 08:30:00,49.5,46.8,29.67,West,264,2.2,7.8,90,0.00,,,-99.99,253.0,HOBO +U30 +Weather +,2013-03-26 15:30:00,
2013-03-26 08:35:00,50.1,47.0,29.67,West,279,1.1,5.6,89,0.00,,,-99.99,258.0,HOBO +U30 +Weather +,2013-03-26 15:35:00,
2013-03-26 08:40:00,51.0,47.6,29.67,West,272,1.1,5.1,88,0.00,,,-99.99,282.0,HOBO +U30 +Weather +,2013-03-26 15:40:00,
2013-03-26 08:45:00,50.9,47.1,29.67,West,268,1.8,6.3,86,0.00,,,-99.99,259.0,HOBO +U30 +Weather +,2013-03-26 15:45:00,
2013-03-26 08:50:00,51.4,47.0,29.67,SW,229,1.8,5.6,84,0.00,,,-99.99,306.0,HOBO +U30 +Weather +,2013-03-26 15:50:00,
2013-03-26 08:55:00,52.1,47.1,29.67,NW,323,0.7,2.9,83,0.00,,,-99.99,324.0,HOBO +U30 +Weather +,2013-03-26 15:55:00,
2013-03-26 09:00:00,51.4,45.7,29.68,WSW,244,2.2,7.4,80,0.00,,,-99.99,348.0,HOBO +U30 +Weather +,2013-03-26 16:00:00,
2013-03-26 09:05:00,51.8,46.2,29.67,West,261,2.2,5.6,81,0.00,,,-99.99,314.0,HOBO +U30 +Weather +,2013-03-26 16:05:00,
2013-03-26 09:10:00,51.4,45.8,29.67,SW,229,2.9,5.6,81,0.00,,,-99.99,352.0,HOBO +U30 +Weather +,2013-03-26 16:10:00,
2013-03-26 09:15:00,51.7,46.2,29.67,WSW,237,2.2,5.6,81,0.00,,,-99.99,371.0,HOBO +U30 +Weather +,2013-03-26 16:15:00,
2013-03-26 09:20:00,51.2,45.8,29.68,West,263,2.2,5.1,81,0.00,,,-99.99,319.0,HOBO +U30 +Weather +,2013-03-26 16:20:00,
2013-03-26 09:25:00,51.7,46.4,29.68,WSW,240,1.8,5.6,81,0.00,,,-99.99,363.0,HOBO +U30 +Weather +,2013-03-26 16:25:00,
2013-03-26 09:30:00,51.9,46.2,29.68,SW,234,2.9,6.7,81,0.00,,,-99.99,388.0,HOBO +U30 +Weather +,2013-03-26 16:30:00,
2013-03-26 09:35:00,52.1,46.5,29.68,WSW,240,2.9,7.8,81,0.00,,,-99.99,413.0,HOBO +U30 +Weather +,2013-03-26 16:35:00,
2013-03-26 09:40:00,52.8,46.7,29.68,SW,226,3.4,8.5,79,0.00,,,-99.99,494.0,HOBO +U30 +Weather +,2013-03-26 16:40:00,
2013-03-26 09:45:00,52.5,46.2,29.68,SW,232,3.4,6.7,78,0.00,,,-99.99,473.0,HOBO +U30 +Weather +,2013-03-26 16:45:00,
2013-03-26 09:50:00,52.1,46.0,29.68,SW,223,4.0,8.9,79,0.00,,,-99.99,302.0,HOBO +U30 +Weather +,2013-03-26 16:50:00,
2013-03-26 09:55:00,51.4,45.3,29.68,SW,227,4.5,9.6,79,0.00,,,-99.99,401.0,HOBO +U30 +Weather +,2013-03-26 16:55:00,
2013-03-26 10:00:00,52.6,46.5,29.68,SW,227,4.0,8.5,79,0.00,,,-99.99,456.0,HOBO +U30 +Weather +,2013-03-26 17:00:00,
2013-03-26 10:05:00,52.5,46.0,29.68,WSW,241,3.4,7.4,78,0.00,,,-99.99,352.0,HOBO +U30 +Weather +,2013-03-26 17:05:00,
2013-03-26 10:10:00,52.0,46.1,29.68,SW,220,4.5,8.5,80,0.00,,,-99.99,429.0,HOBO +U30 +Weather +,2013-03-26 17:10:00,
2013-03-26 10:15:00,53.2,47.0,29.68,SW,219,3.4,7.8,79,0.00,,,-99.99,373.0,HOBO +U30 +Weather +,2013-03-26 17:15:00,
2013-03-26 10:20:00,53.4,47.4,29.68,SW,236,2.9,7.4,80,0.00,,,-99.99,403.0,HOBO +U30 +Weather +,2013-03-26 17:20:00,
2013-03-26 10:25:00,54.2,47.8,29.68,SW,229,4.0,8.9,78,0.00,,,-99.99,663.0,HOBO +U30 +Weather +,2013-03-26 17:25:00,
2013-03-26 10:30:00,53.0,46.1,29.68,SW,226,6.3,9.6,77,0.00,,,-99.99,683.0,HOBO +U30 +Weather +,2013-03-26 17:30:00,
2013-03-26 10:35:00,53.4,46.5,29.68,SW,229,5.6,10.7,77,0.00,,,-99.99,648.0,HOBO +U30 +Weather +,2013-03-26 17:35:00,
2013-03-26 10:40:00,53.5,46.9,29.68,SW,223,5.6,8.9,78,0.00,,,-99.99,634.0,HOBO +U30 +Weather +,2013-03-26 17:40:00,
2013-03-26 10:45:00,55.3,48.1,29.68,WSW,243,2.9,6.7,76,0.00,,,-99.99,453.0,HOBO +U30 +Weather +,2013-03-26 17:45:00,
2013-03-26 10:50:00,53.7,46.5,29.68,SSW,212,4.5,10.7,76,0.00,,,-99.99,494.0,HOBO +U30 +Weather +,2013-03-26 17:50:00,
2013-03-26 10:55:00,55.4,48.6,29.68,SSW,192,2.2,6.3,77,0.00,,,-99.99,508.0,HOBO +U30 +Weather +,2013-03-26 17:55:00,
2013-03-26 11:00:00,55.5,48.3,29.68,SW,227,2.2,7.4,76,0.00,,,-99.99,452.0,HOBO +U30 +Weather +,2013-03-26 18:00:00,
2013-03-26 11:05:00,53.8,46.7,29.68,SW,233,4.5,8.5,76,0.00,,,-99.99,497.0,HOBO +U30 +Weather +,2013-03-26 18:05:00,
2013-03-26 11:10:00,53.6,47.2,29.68,SW,233,4.5,8.9,79,0.00,,,-99.99,398.0,HOBO +U30 +Weather +,2013-03-26 18:10:00,
2013-03-26 11:15:00,54.4,48.1,29.68,WSW,247,3.4,8.9,79,0.00,,,-99.99,362.0,HOBO +U30 +Weather +,2013-03-26 18:15:00,
2013-03-26 11:20:00,54.1,47.7,29.68,SW,219,4.5,8.5,78,0.00,,,-99.99,396.0,HOBO +U30 +Weather +,2013-03-26 18:20:00,
2013-03-26 11:25:00,53.4,47.0,29.68,SW,223,6.3,9.6,78,0.00,,,-99.99,468.0,HOBO +U30 +Weather +,2013-03-26 18:25:00,
2013-03-26 11:30:00,54.2,48.0,29.68,SW,232,6.3,10.1,79,0.00,,,-99.99,522.0,HOBO +U30 +Weather +,2013-03-26 18:30:00,
2013-03-26 11:35:00,54.2,47.5,29.68,SW,223,6.7,11.9,77,0.00,,,-99.99,433.0,HOBO +U30 +Weather +,2013-03-26 18:35:00,
2013-03-26 11:40:00,54.4,47.7,29.68,SW,232,6.3,11.2,77,0.00,,,-99.99,721.0,HOBO +U30 +Weather +,2013-03-26 18:40:00,
2013-03-26 11:45:00,54.5,47.3,29.68,SW,226,6.7,13.4,76,0.00,,,-99.99,756.0,HOBO +U30 +Weather +,2013-03-26 18:45:00,
2013-03-26 11:50:00,55.5,47.9,29.68,SW,229,6.3,11.2,75,0.00,,,-99.99,594.0,HOBO +U30 +Weather +,2013-03-26 18:50:00,
2013-03-26 11:55:00,53.7,46.8,29.69,SW,232,6.7,10.7,77,0.00,,,-99.99,379.0,HOBO +U30 +Weather +,2013-03-26 18:55:00,
2013-03-26 12:00:00,53.4,46.6,29.69,SW,234,6.3,11.9,77,0.00,,,-99.99,409.0,HOBO +U30 +Weather +,2013-03-26 19:00:00,
2013-03-26 12:05:00,52.9,46.4,29.69,SW,230,6.3,11.9,78,0.00,,,-99.99,422.0,HOBO +U30 +Weather +,2013-03-26 19:05:00,
2013-03-26 12:10:00,53.8,47.4,29.69,SW,225,6.7,11.2,78,0.00,,,-99.99,484.0,HOBO +U30 +Weather +,2013-03-26 19:10:00,
2013-03-26 12:15:00,53.7,46.7,29.69,SW,229,6.3,11.9,77,0.00,,,-99.99,539.0,HOBO +U30 +Weather +,2013-03-26 19:15:00,
2013-03-26 12:20:00,53.9,47.2,29.69,SW,230,7.4,13.0,78,0.00,,,-99.99,448.0,HOBO +U30 +Weather +,2013-03-26 19:20:00,
2013-03-26 12:25:00,54.4,47.4,29.68,SW,227,6.3,11.9,76,0.00,,,-99.99,721.0,HOBO +U30 +Weather +,2013-03-26 19:25:00,
2013-03-26 12:30:00,54.7,47.1,29.68,SW,218,7.4,11.9,75,0.00,,,-99.99,584.0,HOBO +U30 +Weather +,2013-03-26 19:30:00,
2013-03-26 12:35:00,55.0,47.5,29.68,SW,222,7.4,12.3,75,0.00,,,-99.99,764.0,HOBO +U30 +Weather +,2013-03-26 19:35:00,
2013-03-26 12:40:00,55.0,47.3,29.68,SW,225,7.8,14.5,75,0.00,,,-99.99,713.0,HOBO +U30 +Weather +,2013-03-26 19:40:00,
2013-03-26 12:45:00,56.7,48.3,29.68,SW,215,5.6,11.2,73,0.00,,,-99.99,738.0,HOBO +U30 +Weather +,2013-03-26 19:45:00,
2013-03-26 12:50:00,57.8,48.8,29.68,WSW,246,4.0,8.9,71,0.00,,,-99.99,863.0,HOBO +U30 +Weather +,2013-03-26 19:50:00,
2013-03-26 12:55:00,56.6,47.8,29.68,WSW,237,3.4,8.9,72,0.00,,,-99.99,556.0,HOBO +U30 +Weather +,2013-03-26 19:55:00,
2013-03-26 13:00:00,56.6,48.2,29.68,WSW,248,4.0,10.1,73,0.00,,,-99.99,606.0,HOBO +U30 +Weather +,2013-03-26 20:00:00,
2013-03-26 13:05:00,55.2,46.9,29.68,WSW,244,4.5,8.5,73,0.00,,,-99.99,444.0,HOBO +U30 +Weather +,2013-03-26 20:05:00,
2013-03-26 13:10:00,56.1,48.0,29.68,SW,233,4.5,10.7,74,0.00,,,-99.99,474.0,HOBO +U30 +Weather +,2013-03-26 20:10:00,
2013-03-26 13:15:00,55.2,46.8,29.68,SW,227,5.6,11.9,73,0.00,,,-99.99,479.0,HOBO +U30 +Weather +,2013-03-26 20:15:00,
2013-03-26 13:20:00,55.8,47.5,29.68,SW,230,5.6,10.1,73,0.00,,,-99.99,881.0,HOBO +U30 +Weather +,2013-03-26 20:20:00,
2013-03-26 13:25:00,56.0,47.8,29.68,SW,225,6.3,11.9,73,0.00,,,-99.99,843.0,HOBO +U30 +Weather +,2013-03-26 20:25:00,
2013-03-26 13:30:00,55.3,47.0,29.68,SW,233,5.6,10.1,73,0.00,,,-99.99,387.0,HOBO +U30 +Weather +,2013-03-26 20:30:00,
2013-03-26 13:35:00,55.7,47.6,29.67,WSW,241,5.1,9.6,74,0.00,,,-99.99,706.0,HOBO +U30 +Weather +,2013-03-26 20:35:00,
2013-03-26 13:40:00,56.0,47.6,29.67,SW,226,5.1,10.1,73,0.00,,,-99.99,633.0,HOBO +U30 +Weather +,2013-03-26 20:40:00,
2013-03-26 13:45:00,56.2,47.8,29.67,SW,229,5.1,10.7,73,0.00,,,-99.99,801.0,HOBO +U30 +Weather +,2013-03-26 20:45:00,
2013-03-26 13:50:00,56.8,48.0,29.67,SW,227,5.6,13.4,72,0.00,,,-99.99,863.0,HOBO +U30 +Weather +,2013-03-26 20:50:00,
2013-03-26 13:55:00,57.3,48.1,29.67,SW,232,4.5,8.9,71,0.00,,,-99.99,367.0,HOBO +U30 +Weather +,2013-03-26 20:55:00,
2013-03-26 14:00:00,58.1,49.2,29.67,WSW,244,2.9,9.6,72,0.00,,,-99.99,877.0,HOBO +U30 +Weather +,2013-03-26 21:00:00,
2013-03-26 14:05:00,56.2,46.5,29.66,SW,229,4.5,8.9,69,0.00,,,-99.99,491.0,HOBO +U30 +Weather +,2013-03-26 21:05:00,
2013-03-26 14:10:00,56.6,48.1,29.66,WSW,250,4.0,10.7,73,0.00,,,-99.99,606.0,HOBO +U30 +Weather +,2013-03-26 21:10:00,
2013-03-26 14:15:00,56.0,47.5,29.66,WSW,239,5.6,14.1,73,0.00,,,-99.99,739.0,HOBO +U30 +Weather +,2013-03-26 21:15:00,
2013-03-26 14:20:00,55.8,47.5,29.66,SW,229,7.4,14.5,73,0.00,,,-99.99,693.0,HOBO +U30 +Weather +,2013-03-26 21:20:00,
2013-03-26 14:25:00,56.0,48.1,29.66,SW,232,8.9,15.2,74,0.00,,,-99.99,696.0,HOBO +U30 +Weather +,2013-03-26 21:25:00,
2013-03-26 14:30:00,55.8,47.7,29.66,SW,227,9.6,15.2,74,0.00,,,-99.99,728.0,HOBO +U30 +Weather +,2013-03-26 21:30:00,
2013-03-26 14:35:00,56.4,48.3,29.66,SW,230,8.5,14.5,74,0.00,,,-99.99,711.0,HOBO +U30 +Weather +,2013-03-26 21:35:00,
2013-03-26 14:40:00,56.0,48.0,29.65,SW,232,8.5,14.1,74,0.00,,,-99.99,686.0,HOBO +U30 +Weather +,2013-03-26 21:40:00,
2013-03-26 14:45:00,55.7,47.8,29.66,SW,227,8.9,16.3,74,0.00,,,-99.99,679.0,HOBO +U30 +Weather +,2013-03-26 21:45:00,
2013-03-26 14:50:00,57.9,49.7,29.65,SW,234,6.7,14.1,73,0.00,,,-99.99,668.0,HOBO +U30 +Weather +,2013-03-26 21:50:00,
2013-03-26 14:55:00,56.1,47.8,29.65,SW,230,8.5,13.4,73,0.00,,,-99.99,662.0,HOBO +U30 +Weather +,2013-03-26 21:55:00,
2013-03-26 15:00:00,56.2,48.3,29.65,SW,226,8.5,13.4,74,0.00,,,-99.99,658.0,HOBO +U30 +Weather +,2013-03-26 22:00:00,
2013-03-26 15:05:00,56.5,48.5,29.65,SW,229,7.8,14.1,74,0.00,,,-99.99,648.0,HOBO +U30 +Weather +,2013-03-26 22:05:00,
2013-03-26 15:10:00,57.4,48.5,29.65,WSW,244,5.6,14.1,72,0.00,,,-99.99,636.0,HOBO +U30 +Weather +,2013-03-26 22:10:00,
2013-03-26 15:15:00,56.8,48.1,29.65,SW,227,8.5,16.3,72,0.00,,,-99.99,626.0,HOBO +U30 +Weather +,2013-03-26 22:15:00,
2013-03-26 15:20:00,56.6,47.7,29.65,SW,229,8.5,14.5,72,0.00,,,-99.99,616.0,HOBO +U30 +Weather +,2013-03-26 22:20:00,
2013-03-26 15:25:00,56.5,48.0,29.64,SW,236,8.9,15.2,73,0.00,,,-99.99,607.0,HOBO +U30 +Weather +,2013-03-26 22:25:00,
2013-03-26 15:30:00,56.8,48.3,29.64,SW,225,8.5,13.4,73,0.00,,,-99.99,598.0,HOBO +U30 +Weather +,2013-03-26 22:30:00,
2013-03-26 15:35:00,57.3,48.3,29.64,SW,226,8.5,12.3,71,0.00,,,-99.99,587.0,HOBO +U30 +Weather +,2013-03-26 22:35:00,
2013-03-26 15:40:00,56.5,47.6,29.64,SW,223,8.9,14.1,72,0.00,,,-99.99,576.0,HOBO +U30 +Weather +,2013-03-26 22:40:00,
2013-03-26 15:45:00,56.1,47.7,29.64,SW,225,10.1,18.6,73,0.00,,,-99.99,567.0,HOBO +U30 +Weather +,2013-03-26 22:45:00,
2013-03-26 15:50:00,56.4,47.7,29.64,SW,229,8.5,15.9,72,0.00,,,-99.99,557.0,HOBO +U30 +Weather +,2013-03-26 22:50:00,
2013-03-26 15:55:00,56.6,48.0,29.64,SW,232,8.9,14.5,72,0.00,,,-99.99,544.0,HOBO +U30 +Weather +,2013-03-26 22:55:00,
2013-03-26 16:00:00,56.1,47.5,29.64,SW,230,8.9,14.5,72,0.00,,,-99.99,534.0,HOBO +U30 +Weather +,2013-03-26 23:00:00,
2013-03-26 16:05:00,55.9,48.0,29.64,SW,234,8.9,14.5,74,0.00,,,-99.99,523.0,HOBO +U30 +Weather +,2013-03-26 23:05:00,
2013-03-26 16:10:00,55.6,47.0,29.64,WSW,239,8.5,17.0,72,0.00,,,-99.99,512.0,HOBO +U30 +Weather +,2013-03-26 23:10:00,
2013-03-26 16:15:00,55.0,46.6,29.64,WSW,243,7.8,15.9,73,0.00,,,-99.99,498.0,HOBO +U30 +Weather +,2013-03-26 23:15:00,
2013-03-26 16:20:00,54.8,46.5,29.64,WSW,243,9.6,17.4,73,0.00,,,-99.99,487.0,HOBO +U30 +Weather +,2013-03-26 23:20:00,
2013-03-26 16:25:00,55.8,47.4,29.64,WSW,237,8.5,17.0,73,0.00,,,-99.99,477.0,HOBO +U30 +Weather +,2013-03-26 23:25:00,
2013-03-26 16:30:00,56.2,47.4,29.64,WSW,246,7.4,14.5,72,0.00,,,-99.99,466.0,HOBO +U30 +Weather +,2013-03-26 23:30:00,
2013-03-26 16:35:00,56.0,47.0,29.64,WSW,241,7.4,13.4,71,0.00,,,-99.99,453.0,HOBO +U30 +Weather +,2013-03-26 23:35:00,
2013-03-26 16:40:00,56.2,47.0,29.63,WSW,243,6.3,15.9,71,0.00,,,-99.99,444.0,HOBO +U30 +Weather +,2013-03-26 23:40:00,
2013-03-26 16:45:00,57.0,47.4,29.63,SW,230,7.4,13.4,70,0.00,,,-99.99,434.0,HOBO +U30 +Weather +,2013-03-26 23:45:00,
2013-03-26 16:50:00,56.3,46.7,29.63,SW,229,8.5,14.5,70,0.00,,,-99.99,418.0,HOBO +U30 +Weather +,2013-03-26 23:50:00,
2013-03-26 16:55:00,55.3,46.5,29.63,SW,227,10.7,16.3,72,0.00,,,-99.99,403.0,HOBO +U30 +Weather +,2013-03-26 23:55:00,
2013-03-26 17:00:00,54.6,46.1,29.63,SW,230,11.2,17.0,72,0.00,,,-99.99,392.0,HOBO +U30 +Weather +,2013-03-27 00:00:00,
2013-03-26 17:05:00,55.0,46.8,29.63,SW,230,10.7,18.1,73,0.00,,,-99.99,364.0,HOBO +U30 +Weather +,2013-03-27 00:05:00,
2013-03-26 17:10:00,53.8,45.5,29.63,SW,230,8.9,15.9,73,0.00,,,-99.99,63.0,HOBO +U30 +Weather +,2013-03-27 00:10:00,
2013-03-26 17:15:00,53.0,45.5,29.63,SW,230,9.6,14.5,75,0.00,,,-99.99,82.0,HOBO +U30 +Weather +,2013-03-27 00:15:00,
2013-03-26 17:20:00,53.3,46.1,29.62,SW,229,10.1,14.5,76,0.00,,,-99.99,218.0,HOBO +U30 +Weather +,2013-03-27 00:20:00,
2013-03-26 17:25:00,53.2,46.0,29.62,SW,232,10.1,15.9,76,0.00,,,-99.99,166.0,HOBO +U30 +Weather +,2013-03-27 00:25:00,
2013-03-26 17:30:00,53.8,45.9,29.62,SW,236,8.9,17.0,74,0.00,,,-99.99,357.0,HOBO +U30 +Weather +,2013-03-27 00:30:00,
2013-03-26 17:35:00,54.7,46.1,29.62,SW,234,9.6,17.4,72,0.00,,,-99.99,343.0,HOBO +U30 +Weather +,2013-03-27 00:35:00,
2013-03-26 17:40:00,55.0,46.3,29.62,SW,233,8.9,15.2,72,0.00,,,-99.99,344.0,HOBO +U30 +Weather +,2013-03-27 00:40:00,
2013-03-26 17:45:00,54.2,45.8,29.62,SW,232,8.9,17.4,72,0.00,,,-99.99,286.0,HOBO +U30 +Weather +,2013-03-27 00:45:00,
2013-03-26 17:50:00,52.8,45.5,29.62,SW,234,9.6,16.3,76,0.00,,,-99.99,88.0,HOBO +U30 +Weather +,2013-03-27 00:50:00,
2013-03-26 17:55:00,52.3,45.5,29.62,WSW,237,9.6,18.1,77,0.00,,,-99.99,78.0,HOBO +U30 +Weather +,2013-03-27 00:55:00,
2013-03-26 18:00:00,52.6,46.0,29.63,SW,232,6.7,14.5,78,0.00,,,-99.99,86.0,HOBO +U30 +Weather +,2013-03-27 01:00:00,
2013-03-26 18:05:00,52.3,45.8,29.62,SW,233,6.3,12.3,78,0.00,,,-99.99,78.0,HOBO +U30 +Weather +,2013-03-27 01:05:00,
2013-03-26 18:10:00,52.1,45.7,29.62,WSW,244,7.8,13.4,78,0.00,,,-99.99,73.0,HOBO +U30 +Weather +,2013-03-27 01:10:00,
2013-03-26 18:15:00,51.9,44.9,29.62,WSW,240,9.6,15.2,76,0.00,,,-99.99,66.0,HOBO +U30 +Weather +,2013-03-27 01:15:00,
2013-03-26 18:20:00,51.9,44.5,29.62,WSW,237,8.5,16.3,75,0.00,,,-99.99,78.0,HOBO +U30 +Weather +,2013-03-27 01:20:00,
2013-03-26 18:25:00,52.0,44.2,29.62,WSW,237,10.1,16.3,74,0.00,,,-99.99,76.0,HOBO +U30 +Weather +,2013-03-27 01:25:00,
2013-03-26 18:30:00,52.1,44.1,29.63,SW,234,9.6,14.5,74,0.00,,,-99.99,67.0,HOBO +U30 +Weather +,2013-03-27 01:30:00,
2013-03-26 18:35:00,52.0,44.1,29.63,SW,230,9.6,17.4,74,0.00,,,-99.99,59.0,HOBO +U30 +Weather +,2013-03-27 01:35:00,
2013-03-26 18:40:00,52.1,44.5,29.63,SW,233,7.4,13.4,75,0.00,,,-99.99,47.0,HOBO +U30 +Weather +,2013-03-27 01:40:00,
2013-03-26 18:45:00,52.1,44.7,29.62,SW,230,7.8,15.2,75,0.00,,,-99.99,38.0,HOBO +U30 +Weather +,2013-03-27 01:45:00,
2013-03-26 18:50:00,51.9,44.3,29.62,SW,234,7.8,14.5,75,0.00,,,-99.99,28.0,HOBO +U30 +Weather +,2013-03-27 01:50:00,
2013-03-26 18:55:00,51.8,44.4,29.63,WSW,240,6.7,11.9,75,0.00,,,-99.99,23.0,HOBO +U30 +Weather +,2013-03-27 01:55:00,
2013-03-26 19:00:00,51.5,44.3,29.63,WSW,243,7.4,11.2,76,0.00,,,-99.99,17.0,HOBO +U30 +Weather +,2013-03-27 02:00:00,
2013-03-26 19:05:00,51.4,44.2,29.63,WSW,239,6.7,14.1,76,0.00,,,-99.99,12.0,HOBO +U30 +Weather +,2013-03-27 02:05:00,
2013-03-26 19:10:00,51.4,44.0,29.63,WSW,243,6.7,12.3,75,0.00,,,-99.99,7.0,HOBO +U30 +Weather +,2013-03-27 02:10:00,
2013-03-26 19:15:00,51.2,44.3,29.63,SW,233,6.7,13.4,76,0.00,,,-99.99,4.0,HOBO +U30 +Weather +,2013-03-27 02:15:00,
2013-03-26 19:20:00,50.9,45.0,29.63,WSW,239,8.9,15.2,79,0.00,,,-99.99,2.0,HOBO +U30 +Weather +,2013-03-27 02:20:00,
2013-03-26 19:25:00,51.0,45.7,29.63,SW,234,7.8,14.5,82,0.00,,,-99.99,1.0,HOBO +U30 +Weather +,2013-03-27 02:25:00,
2013-03-26 19:30:00,51.0,45.8,29.63,WSW,240,6.7,11.9,82,0.00,,,-99.99,1.0,HOBO +U30 +Weather +,2013-03-27 02:30:00,
2013-03-26 19:35:00,51.1,46.1,29.63,SW,226,8.5,14.5,83,0.00,,,-99.99,1.0,HOBO +U30 +Weather +,2013-03-27 02:35:00,
2013-03-26 19:40:00,51.0,46.0,29.63,WSW,237,7.8,15.2,82,0.00,,,-99.99,1.0,HOBO +U30 +Weather +,2013-03-27 02:40:00,
2013-03-26 19:45:00,51.0,46.3,29.63,SW,232,7.8,13.0,83,0.00,,,-99.99,1.0,HOBO +U30 +Weather +,2013-03-27 02:45:00,
2013-03-26 19:50:00,51.0,46.5,29.63,SW,234,7.8,12.3,84,0.00,,,-99.99,1.0,HOBO +U30 +Weather +,2013-03-27 02:50:00,
2013-03-26 19:55:00,50.8,46.8,29.63,WSW,237,7.4,16.3,85,0.00,,,-99.99,1.0,HOBO +U30 +Weather +,2013-03-27 02:55:00,
2013-03-26 20:00:00,50.7,46.8,29.64,WSW,239,8.9,16.3,86,0.00,,,-99.99,1.0,HOBO +U30 +Weather +,2013-03-27 03:00:00,
2013-03-26 20:05:00,50.6,47.0,29.64,SW,233,7.8,14.5,87,0.00,,,-99.99,1.0,HOBO +U30 +Weather +,2013-03-27 03:05:00,
2013-03-26 20:10:00,50.5,47.0,29.63,SW,230,8.5,15.9,87,0.00,,,-99.99,1.0,HOBO +U30 +Weather +,2013-03-27 03:10:00,
2013-03-26 20:15:00,50.4,47.2,29.64,WSW,240,8.5,16.3,88,0.00,,,-99.99,1.0,HOBO +U30 +Weather +,2013-03-27 03:15:00,
2013-03-26 20:20:00,50.3,47.4,29.64,SW,236,8.9,17.4,89,0.00,,,-99.99,1.0,HOBO +U30 +Weather +,2013-03-27 03:20:00,
2013-03-26 20:25:00,50.4,47.5,29.64,SW,234,6.7,13.0,89,0.00,,,-99.99,1.0,HOBO +U30 +Weather +,2013-03-27 03:25:00,
2013-03-26 20:30:00,50.4,47.4,29.63,WSW,239,6.7,14.1,89,0.00,,,-99.99,1.0,HOBO +U30 +Weather +,2013-03-27 03:30:00,
2013-03-26 20:35:00,50.3,47.3,29.63,WSW,241,6.7,14.5,89,0.00,,,-99.99,1.0,HOBO +U30 +Weather +,2013-03-27 03:35:00,
2013-03-26 20:40:00,50.3,47.4,29.64,SW,230,6.7,13.4,89,0.00,,,-99.99,1.0,HOBO +U30 +Weather +,2013-03-27 03:40:00,
2013-03-26 20:45:00,50.2,47.5,29.64,SW,230,6.7,12.3,90,0.00,,,-99.99,1.0,HOBO +U30 +Weather +,2013-03-27 03:45:00,
2013-03-26 20:50:00,50.1,47.5,29.64,SW,232,6.3,13.4,90,0.00,,,-99.99,1.0,HOBO +U30 +Weather +,2013-03-27 03:50:00,
2013-03-26 20:55:00,50.1,47.6,29.64,SW,229,5.6,12.3,91,0.00,,,-99.99,1.0,HOBO +U30 +Weather +,2013-03-27 03:55:00,
2013-03-26 21:00:00,49.9,47.5,29.64,SW,230,4.5,10.1,91,0.00,,,-99.99,1.0,HOBO +U30 +Weather +,2013-03-27 04:00:00,
2013-03-26 21:05:00,49.8,47.6,29.64,WSW,241,4.0,8.9,91,0.00,,,-99.99,1.0,HOBO +U30 +Weather +,2013-03-27 04:05:00,
2013-03-26 21:10:00,49.8,47.6,29.64,WSW,239,4.0,9.6,92,0.00,,,-99.99,1.0,HOBO +U30 +Weather +,2013-03-27 04:10:00,
2013-03-26 21:15:00,49.7,47.5,29.64,WSW,239,2.9,8.9,92,0.00,,,-99.99,1.0,HOBO +U30 +Weather +,2013-03-27 04:15:00,
2013-03-26 21:20:00,49.6,47.5,29.65,SW,232,1.8,6.3,92,0.00,,,-99.99,1.0,HOBO +U30 +Weather +,2013-03-27 04:20:00,
2013-03-26 21:25:00,49.6,47.6,29.65,WSW,240,3.4,7.8,92,0.00,,,-99.99,1.0,HOBO +U30 +Weather +,2013-03-27 04:25:00,
2013-03-26 21:30:00,49.6,47.6,29.65,WSW,240,2.9,7.4,92,0.00,,,-99.99,1.0,HOBO +U30 +Weather +,2013-03-27 04:30:00,
2013-03-26 21:35:00,49.5,47.6,29.65,WSW,239,4.0,8.5,93,0.00,,,-99.99,1.0,HOBO +U30 +Weather +,2013-03-27 04:35:00,
2013-03-26 21:40:00,49.4,47.4,29.65,WSW,246,2.9,8.9,92,0.00,,,-99.99,1.0,HOBO +U30 +Weather +,2013-03-27 04:40:00,
2013-03-26 21:45:00,49.4,47.3,29.65,SW,229,5.1,11.2,92,0.00,,,-99.99,1.0,HOBO +U30 +Weather +,2013-03-27 04:45:00,
2013-03-26 21:50:00,49.4,47.3,29.65,WSW,237,6.7,10.7,92,0.00,,,-99.99,1.0,HOBO +U30 +Weather +,2013-03-27 04:50:00,
2013-03-26 21:55:00,49.4,47.4,29.66,SW,233,5.6,10.7,92,0.00,,,-99.99,1.0,HOBO +U30 +Weather +,2013-03-27 04:55:00,
2013-03-26 22:00:00,49.3,47.4,29.66,SW,232,4.0,8.5,92,0.00,,,-99.99,1.0,HOBO +U30 +Weather +,2013-03-27 05:00:00,
2013-03-26 22:05:00,49.3,47.4,29.65,SW,236,4.0,8.5,92,0.00,,,-99.99,1.0,HOBO +U30 +Weather +,2013-03-27 05:05:00,
2013-03-26 22:10:00,49.3,47.4,29.66,WSW,243,3.4,9.6,92,0.00,,,-99.99,1.0,HOBO +U30 +Weather +,2013-03-27 05:10:00,
2013-03-26 22:15:00,49.3,47.3,29.65,WSW,240,2.9,8.5,92,0.00,,,-99.99,1.0,HOBO +U30 +Weather +,2013-03-27 05:15:00,
2013-03-26 22:20:00,49.3,47.4,29.65,SW,227,4.5,9.6,92,0.00,,,-99.99,1.0,HOBO +U30 +Weather +,2013-03-27 05:20:00,
2013-03-26 22:25:00,49.4,47.4,29.65,WSW,237,4.5,10.1,92,0.00,,,-99.99,1.0,HOBO +U30 +Weather +,2013-03-27 05:25:00,
2013-03-26 22:30:00,49.4,47.3,29.65,SW,230,4.0,8.5,92,0.00,,,-99.99,1.0,HOBO +U30 +Weather +,2013-03-27 05:30:00,
2013-03-26 22:35:00,49.4,47.2,29.65,SW,226,4.0,7.8,92,0.00,,,-99.99,1.0,HOBO +U30 +Weather +,2013-03-27 05:35:00,
2013-03-26 22:40:00,49.4,47.2,29.65,SW,232,4.5,7.4,92,0.00,,,-99.99,1.0,HOBO +U30 +Weather +,2013-03-27 05:40:00,
2013-03-26 22:45:00,49.5,47.3,29.65,SW,230,5.6,9.6,92,0.00,,,-99.99,1.0,HOBO +U30 +Weather +,2013-03-27 05:45:00,
2013-03-26 22:50:00,49.6,47.4,29.65,SW,227,5.1,10.1,92,0.00,,,-99.99,1.0,HOBO +U30 +Weather +,2013-03-27 05:50:00,
2013-03-26 22:55:00,49.6,47.5,29.65,SW,225,5.1,8.9,92,0.00,,,-99.99,1.0,HOBO +U30 +Weather +,2013-03-27 05:55:00,
2013-03-26 23:00:00,49.6,47.6,29.65,SW,233,5.1,10.1,92,0.00,,,-99.99,1.0,HOBO +U30 +Weather +,2013-03-27 06:00:00,
2013-03-26 23:05:00,49.5,47.7,29.65,SW,227,6.3,8.9,93,0.00,,,-99.99,1.0,HOBO +U30 +Weather +,2013-03-27 06:05:00,
2013-03-26 23:10:00,49.5,47.7,29.65,SW,223,4.5,7.8,93,0.00,,,-99.99,1.0,HOBO +U30 +Weather +,2013-03-27 06:10:00,
2013-03-26 23:15:00,49.5,47.9,29.65,SW,226,4.0,7.8,93,0.00,,,-99.99,1.0,HOBO +U30 +Weather +,2013-03-27 06:15:00,
2013-03-26 23:20:00,49.4,47.9,29.65,SW,225,4.0,9.6,94,0.00,,,-99.99,1.0,HOBO +U30 +Weather +,2013-03-27 06:20:00,
2013-03-26 23:25:00,49.4,47.9,29.65,SW,230,3.4,7.8,94,0.00,,,-99.99,1.0,HOBO +U30 +Weather +,2013-03-27 06:25:00,
2013-03-26 23:30:00,49.4,47.8,29.65,SW,226,3.4,6.3,94,0.00,,,-99.99,1.0,HOBO +U30 +Weather +,2013-03-27 06:30:00,
2013-03-26 23:35:00,49.3,47.8,29.65,SW,226,2.9,6.3,94,0.00,,,-99.99,1.0,HOBO +U30 +Weather +,2013-03-27 06:35:00,
2013-03-26 23:40:00,49.2,47.6,29.65,WSW,239,2.9,6.7,94,0.00,,,-99.99,1.0,HOBO +U30 +Weather +,2013-03-27 06:40:00,
2013-03-26 23:45:00,49.2,47.6,29.66,SW,225,1.8,5.1,94,0.00,,,-99.99,1.0,HOBO +U30 +Weather +,2013-03-27 06:45:00,
2013-03-26 23:50:00,49.1,47.5,29.66,SW,227,1.1,4.0,94,0.00,,,-99.99,1.0,HOBO +U30 +Weather +,2013-03-27 06:50:00,
2013-03-26 23:55:00,49.1,47.5,29.66,SSW,211,1.1,3.4,94,0.00,,,-99.99,1.0,HOBO +U30 +Weather +,2013-03-27 06:55:00,